Huntsville, Alabama
Current Conditions -  °F | °C
As of 4:00 PM on Sunday 23 Nov 2014 (Local Time) from KHSV Reporting Station
Light Rain Light Rain  
Wind Chill: 59°   Ceiling: 1300
Heat Index: 59°   Visibility: 10mi
Dew Point: 55°   Wind: 9mph
Humidity: 88%   Direction: 130°SE
Pressure: 29.51"   Gusts: NA
Location:  34.73°N, 86.58°W
Report Text: KHSV 232200Z 13008KT 10SM -RA BKN013 BKN060 15/13 A2951 RMK AO2 RAB2159 P0000
Loading
Personal Weather Stations






























Interactive Weather Map New forecast layout! Learn more

10-Day Weather Forecast

Advertisements
Track Severe Weather on mobile